createdAt,value
2023-05-09T00:02:07.904Z,8.02
2023-05-09T00:04:35.364Z,8.27
2023-05-09T00:07:02.137Z,8.80
2023-05-09T00:09:28.772Z,8.95
2023-05-09T00:11:55.554Z,8.63
2023-05-09T00:14:22.140Z,7.97
2023-05-09T00:16:49.205Z,8.95
2023-05-09T00:19:15.959Z,8.98
2023-05-09T00:21:42.743Z,9.48
2023-05-09T00:24:09.290Z,9.10
2023-05-09T00:26:35.995Z,7.95
2023-05-09T00:29:02.650Z,7.72
2023-05-09T00:31:29.435Z,9.52
2023-05-09T00:33:56.080Z,9.82
2023-05-09T00:36:23.349Z,10.13
2023-05-09T00:38:50.064Z,9.00
2023-05-09T00:41:16.785Z,8.15
2023-05-09T00:43:43.384Z,8.32
2023-05-09T00:46:10.179Z,7.00
2023-05-09T00:48:36.852Z,7.60
2023-05-09T00:51:04.864Z,6.78
2023-05-09T00:53:31.653Z,7.97
2023-05-09T00:56:00.286Z,8.20
2023-05-09T00:58:27.511Z,8.20
2023-05-09T01:00:54.243Z,7.15
2023-05-09T01:03:21.170Z,8.27
2023-05-09T01:06:26.568Z,8.82
2023-05-09T01:09:01.248Z,8.18
2023-05-09T01:12:05.412Z,8.45
2023-05-09T01:14:50.589Z,8.45
2023-05-09T01:17:46.828Z,9.02
2023-05-09T01:20:24.358Z,8.32
2023-05-09T01:23:01.995Z,8.75
2023-05-09T01:25:38.034Z,9.35
2023-05-09T01:28:14.303Z,8.20
2023-05-09T01:30:45.813Z,9.88
2023-05-09T01:33:18.093Z,9.43
2023-05-09T01:35:52.147Z,10.38
2023-05-09T01:38:23.079Z,8.48
2023-05-09T01:40:54.436Z,9.98
2023-05-09T01:43:23.595Z,9.38
2023-05-09T01:45:52.460Z,9.48
2023-05-09T01:48:21.706Z,9.32
2023-05-09T01:50:49.089Z,9.50
2023-05-09T01:53:17.766Z,9.48
2023-05-09T01:55:45.925Z,9.13
2023-05-09T01:58:13.409Z,10.07
2023-05-09T02:00:41.114Z,9.45
2023-05-09T02:03:08.974Z,9.23
2023-05-09T02:05:37.278Z,9.18
2023-05-09T02:08:04.157Z,10.25
2023-05-09T02:10:34.256Z,10.13
2023-05-09T02:13:01.268Z,9.27
2023-05-09T02:15:29.523Z,9.32
2023-05-09T02:17:56.695Z,9.05
2023-05-09T02:20:23.381Z,8.88
2023-05-09T02:22:50.644Z,8.75
2023-05-09T02:25:18.596Z,8.45
2023-05-09T02:27:46.649Z,7.80
2023-05-09T02:30:23.320Z,8.52
2023-05-09T02:32:53.736Z,7.95
2023-05-09T02:35:23.026Z,8.77
2023-05-09T02:37:49.912Z,8.02
2023-05-09T02:40:17.779Z,8.30
2023-05-09T02:42:44.594Z,8.65
2023-05-09T02:45:11.505Z,8.48
2023-05-09T02:47:38.998Z,8.73
2023-05-09T02:50:06.456Z,8.20
2023-05-09T02:52:35.504Z,8.55
2023-05-09T02:55:03.054Z,9.30
2023-05-09T02:57:31.147Z,8.23
2023-05-09T02:59:57.787Z,8.52
2023-05-09T03:02:24.811Z,7.72
2023-05-09T03:04:51.820Z,8.43
2023-05-09T03:07:18.845Z,9.32
2023-05-09T03:09:45.575Z,8.82
2023-05-09T03:12:12.903Z,8.68
2023-05-09T03:14:39.602Z,9.13
2023-05-09T03:17:06.309Z,8.48
2023-05-09T03:19:35.588Z,7.90
2023-05-09T03:22:02.479Z,7.63
2023-05-09T03:24:32.377Z,9.63
2023-05-09T03:26:59.053Z,8.38
2023-05-09T03:29:25.969Z,8.15
2023-05-09T03:31:54.045Z,8.40
2023-05-09T03:34:20.707Z,9.13
2023-05-09T03:36:47.910Z,8.00
2023-05-09T03:39:15.354Z,8.45
2023-05-09T03:41:45.269Z,8.90
2023-05-09T03:44:12.665Z,8.15
2023-05-09T03:46:39.311Z,8.25
2023-05-09T03:49:06.637Z,7.35
2023-05-09T03:51:34.476Z,7.85
2023-05-09T03:54:05.024Z,8.05
2023-05-09T03:56:32.444Z,7.85
2023-05-09T03:58:59.670Z,8.40
2023-05-09T04:01:27.619Z,8.18
2023-05-09T04:03:57.726Z,7.05
2023-05-09T04:06:25.812Z,8.00
2023-05-09T04:08:52.599Z,7.35
2023-05-09T04:11:19.264Z,8.48
2023-05-09T04:13:47.643Z,7.75
2023-05-09T04:16:25.163Z,8.68
2023-05-09T04:18:51.924Z,8.60
2023-05-09T04:21:18.548Z,8.63
2023-05-09T04:23:48.542Z,8.50
2023-05-09T04:26:17.989Z,9.05
2023-05-09T04:28:47.811Z,10.20
2023-05-09T04:31:16.258Z,9.73
2023-05-09T04:33:46.849Z,9.23
2023-05-09T04:36:13.553Z,11.10
2023-05-09T04:38:40.682Z,10.63
2023-05-09T04:41:11.810Z,10.10
2023-05-09T04:43:38.463Z,9.40
2023-05-09T04:46:07.796Z,9.10
2023-05-09T04:48:35.959Z,10.15
2023-05-09T04:51:02.724Z,10.02
2023-05-09T04:53:29.627Z,8.88
2023-05-09T04:55:57.184Z,8.70
2023-05-09T04:58:25.643Z,8.55
2023-05-09T05:00:53.292Z,8.15
2023-05-09T05:03:20.113Z,8.43
2023-05-09T05:05:47.130Z,7.82
2023-05-09T05:08:14.057Z,8.82
2023-05-09T05:10:42.142Z,7.60
2023-05-09T05:13:11.896Z,7.82
2023-05-09T05:15:43.310Z,8.55
2023-05-09T05:18:10.728Z,7.82
2023-05-09T05:20:41.607Z,7.57
2023-05-09T05:23:09.064Z,8.57
2023-05-09T05:25:35.742Z,8.80
2023-05-09T05:28:02.554Z,9.55
2023-05-09T05:30:29.410Z,10.27
2023-05-09T05:32:56.299Z,8.48
2023-05-09T05:35:24.658Z,8.07
2023-05-09T05:37:52.763Z,8.38
2023-05-09T05:40:19.910Z,8.55
2023-05-09T05:42:48.607Z,8.75
2023-05-09T05:45:16.589Z,7.55
2023-05-09T05:47:48.039Z,7.05
2023-05-09T05:50:15.114Z,9.15
2023-05-09T05:52:42.443Z,9.68
2023-05-09T05:55:13.111Z,8.77
2023-05-09T05:57:40.616Z,9.20
2023-05-09T06:00:12.313Z,9.25
2023-05-09T06:02:47.944Z,8.65
2023-05-09T06:05:22.602Z,9.10
2023-05-09T06:07:50.466Z,8.35
2023-05-09T06:10:17.252Z,8.85
2023-05-09T06:12:45.540Z,8.07
2023-05-09T06:15:12.551Z,8.18
2023-05-09T06:17:43.147Z,8.63
2023-05-09T06:20:10.086Z,8.77
2023-05-09T06:22:36.740Z,9.52
2023-05-09T06:25:03.516Z,9.57
2023-05-09T06:27:30.429Z,10.57
2023-05-09T06:29:57.148Z,8.45
2023-05-09T06:32:25.066Z,8.95
2023-05-09T06:34:52.688Z,9.07
2023-05-09T06:37:19.369Z,9.35
2023-05-09T06:39:46.005Z,8.98
2023-05-09T06:42:12.821Z,9.85
2023-05-09T06:44:39.807Z,10.27
2023-05-09T06:47:06.532Z,10.02
2023-05-09T06:49:33.314Z,10.20
2023-05-09T06:51:59.908Z,10.77
2023-05-09T06:54:26.580Z,8.45
2023-05-09T06:56:53.578Z,10.55
2023-05-09T06:59:20.408Z,9.95
2023-05-09T07:01:47.051Z,9.35
2023-05-09T07:04:13.745Z,9.68
2023-05-09T07:06:40.430Z,9.45
2023-05-09T07:09:07.151Z,9.45
2023-05-09T07:11:37.644Z,8.98
2023-05-09T07:14:04.477Z,8.90
2023-05-09T07:16:32.065Z,8.88
2023-05-09T07:18:59.321Z,9.00
2023-05-09T07:21:26.028Z,9.18
2023-05-09T07:23:52.743Z,8.95
2023-05-09T07:26:19.454Z,8.75
2023-05-09T07:28:46.153Z,9.02
2023-05-09T07:31:12.767Z,8.40
2023-05-09T07:33:39.666Z,8.45
2023-05-09T07:36:06.412Z,9.88
2023-05-09T07:38:33.136Z,10.45
2023-05-09T07:40:59.715Z,9.57
2023-05-09T07:43:27.253Z,10.00
2023-05-09T07:45:54.092Z,9.30
2023-05-09T07:48:20.835Z,10.30
2023-05-09T07:50:47.560Z,8.82
2023-05-09T07:53:14.321Z,8.98
2023-05-09T07:55:41.118Z,9.32
2023-05-09T07:58:07.909Z,9.48
2023-05-09T08:00:34.532Z,8.82
2023-05-09T08:03:01.873Z,9.65
2023-05-09T08:05:28.878Z,8.48
2023-05-09T08:07:55.571Z,7.38
2023-05-09T08:10:23.268Z,7.40
2023-05-09T08:12:50.062Z,7.85
2023-05-09T08:15:17.124Z,7.05
2023-05-09T08:17:44.396Z,6.90
2023-05-09T08:20:12.008Z,7.03
2023-05-09T08:22:39.790Z,7.10
2023-05-09T08:25:08.183Z,6.05
2023-05-09T08:27:35.001Z,6.03
2023-05-09T08:30:01.684Z,6.18
2023-05-09T08:32:28.467Z,5.82
2023-05-09T08:34:55.174Z,6.13
2023-05-09T08:37:21.952Z,6.80
2023-05-09T08:39:48.631Z,6.38
2023-05-09T08:42:18.812Z,6.05
2023-05-09T08:44:45.689Z,5.97
2023-05-09T08:47:13.401Z,5.60
2023-05-09T08:49:41.015Z,5.28
2023-05-09T08:52:08.282Z,5.78
2023-05-09T08:54:35.941Z,5.78
2023-05-09T08:57:03.178Z,4.85
2023-05-09T08:59:30.969Z,4.25
2023-05-09T09:01:58.418Z,4.50
2023-05-09T09:04:25.122Z,4.03
2023-05-09T09:06:53.870Z,4.40
2023-05-09T09:09:21.427Z,5.90
2023-05-09T09:11:48.441Z,4.70
2023-05-09T09:14:25.596Z,5.07
2023-05-09T09:16:54.607Z,4.85
2023-05-09T09:19:22.731Z,5.38
2023-05-09T09:21:54.002Z,4.47
2023-05-09T09:24:23.068Z,4.72
2023-05-09T09:26:51.478Z,4.03
2023-05-09T09:29:18.965Z,4.68
2023-05-09T09:31:46.688Z,3.97
2023-05-09T09:34:20.341Z,3.58
2023-05-09T09:36:48.460Z,4.10
2023-05-09T09:39:15.933Z,4.35
2023-05-09T09:41:44.646Z,3.88
2023-05-09T09:44:16.734Z,4.40
2023-05-09T09:46:45.035Z,4.85
2023-05-09T09:49:13.432Z,4.22
2023-05-09T09:51:41.060Z,5.25
2023-05-09T09:54:12.736Z,4.53
2023-05-09T09:56:41.697Z,4.53
2023-05-09T09:59:18.840Z,4.80
2023-05-09T10:02:04.941Z,4.28
2023-05-09T10:04:39.073Z,3.92
2023-05-09T10:07:08.419Z,5.55
2023-05-09T10:09:37.983Z,4.85
2023-05-09T10:12:06.579Z,5.15
2023-05-09T10:14:35.638Z,4.82
2023-05-09T10:17:05.067Z,5.53
2023-05-09T10:19:33.186Z,4.30
2023-05-09T10:22:05.998Z,4.80
2023-05-09T10:24:43.622Z,5.05
2023-05-09T10:27:11.778Z,5.10
2023-05-09T10:29:44.521Z,4.93
2023-05-09T10:32:40.420Z,4.82
2023-05-09T10:35:10.776Z,4.15
2023-05-09T10:37:37.800Z,4.82
2023-05-09T10:40:05.288Z,4.30
2023-05-09T10:42:32.238Z,4.25
2023-05-09T10:44:58.920Z,5.85
2023-05-09T10:47:28.010Z,5.43
2023-05-09T10:49:55.331Z,5.05
2023-05-09T10:52:25.046Z,5.30
2023-05-09T10:55:02.131Z,6.15
2023-05-09T10:57:30.622Z,5.07
2023-05-09T10:59:58.840Z,5.85
2023-05-09T11:02:29.499Z,5.63
2023-05-09T11:05:16.737Z,5.20
2023-05-09T11:07:43.800Z,5.20
2023-05-09T11:10:16.675Z,5.00
2023-05-09T11:12:58.047Z,4.65
2023-05-09T11:15:27.417Z,6.00
2023-05-09T11:18:12.854Z,6.18
2023-05-09T11:20:43.965Z,5.65
2023-05-09T11:23:11.841Z,5.18
2023-05-09T11:25:42.218Z,5.20
2023-05-09T11:28:08.858Z,5.13
2023-05-09T11:30:40.159Z,4.68
2023-05-09T11:33:21.110Z,5.35
2023-05-09T11:35:48.274Z,5.00
2023-05-09T11:38:21.324Z,5.20
2023-05-09T11:40:48.634Z,5.45
2023-05-09T11:43:15.821Z,5.45
2023-05-09T11:45:42.873Z,5.60
2023-05-09T11:48:10.416Z,5.15
2023-05-09T11:50:37.370Z,4.68
2023-05-09T11:53:04.003Z,5.03
2023-05-09T11:55:32.557Z,4.57
2023-05-09T11:57:59.470Z,5.20
2023-05-09T12:00:26.601Z,5.45
2023-05-09T12:02:54.055Z,4.90
2023-05-09T12:05:22.943Z,4.63
2023-05-09T12:07:49.806Z,5.07
2023-05-09T12:10:20.166Z,5.22
2023-05-09T12:12:50.969Z,5.05
2023-05-09T12:15:19.338Z,5.90
2023-05-09T12:17:48.171Z,4.85
2023-05-09T12:20:16.536Z,4.88
2023-05-09T12:22:44.129Z,5.10
2023-05-09T12:25:12.083Z,5.57
2023-05-09T12:27:40.481Z,5.32
2023-05-09T12:30:10.255Z,5.55
2023-05-09T12:32:39.499Z,5.60
2023-05-09T12:35:10.930Z,4.65
2023-05-09T12:37:38.848Z,6.03
2023-05-09T12:40:15.424Z,5.22
2023-05-09T12:42:46.049Z,5.53
2023-05-09T12:45:13.455Z,5.05
2023-05-09T12:47:41.940Z,4.50
2023-05-09T12:50:11.787Z,5.35
2023-05-09T12:52:54.169Z,5.43
2023-05-09T12:55:27.956Z,6.45
2023-05-09T12:58:02.695Z,5.40
2023-05-09T13:00:41.365Z,6.25
2023-05-09T13:03:31.247Z,6.00
2023-05-09T13:06:00.036Z,5.95
2023-05-09T13:08:27.956Z,7.00
2023-05-09T13:11:04.024Z,5.95
2023-05-09T13:13:41.909Z,7.07
2023-05-09T13:16:10.380Z,5.95
2023-05-09T13:18:38.365Z,5.55
2023-05-09T13:21:05.042Z,5.60
2023-05-09T13:23:31.739Z,5.93
2023-05-09T13:25:58.348Z,7.18
2023-05-09T13:28:25.177Z,6.95
2023-05-09T13:30:51.846Z,6.10
2023-05-09T13:33:25.945Z,5.10
2023-05-09T13:35:53.768Z,5.65
2023-05-09T13:38:20.453Z,6.15
2023-05-09T13:40:47.095Z,5.93
2023-05-09T13:43:13.666Z,5.53
2023-05-09T13:45:40.551Z,5.60
2023-05-09T13:48:07.197Z,5.97
2023-05-09T13:50:34.326Z,5.45
2023-05-09T13:53:01.047Z,5.95
2023-05-09T13:55:27.823Z,5.57
2023-05-09T13:57:54.958Z,5.32
2023-05-09T14:00:22.283Z,5.65
2023-05-09T14:02:49.003Z,5.93
2023-05-09T14:05:17.041Z,6.75
2023-05-09T14:07:44.997Z,5.88
2023-05-09T14:10:12.608Z,6.57
2023-05-09T14:12:40.599Z,6.60
2023-05-09T14:15:08.285Z,5.25
2023-05-09T14:17:35.132Z,6.25
2023-05-09T14:20:02.196Z,6.15
2023-05-09T14:22:28.762Z,7.30
2023-05-09T14:24:57.275Z,5.78
2023-05-09T14:27:25.129Z,5.82
2023-05-09T14:29:51.945Z,6.22
2023-05-09T14:32:18.568Z,6.38
2023-05-09T14:34:45.993Z,6.43
2023-05-09T14:37:15.466Z,6.82
2023-05-09T14:39:43.542Z,6.68
2023-05-09T14:42:11.733Z,6.80
2023-05-09T14:44:39.195Z,6.10
2023-05-09T14:47:06.141Z,5.70
2023-05-09T14:49:33.098Z,6.30
2023-05-09T14:52:00.173Z,6.70
2023-05-09T14:54:27.064Z,6.53
2023-05-09T14:56:53.720Z,7.00
2023-05-09T14:59:23.537Z,6.95
2023-05-09T15:01:52.632Z,6.53
2023-05-09T15:04:19.437Z,5.97
2023-05-09T15:06:46.289Z,6.03
2023-05-09T15:09:14.705Z,6.20
2023-05-09T15:11:48.193Z,5.70
2023-05-09T15:14:16.558Z,7.40
2023-05-09T15:16:43.617Z,7.68
2023-05-09T15:19:10.461Z,6.85
2023-05-09T15:21:37.088Z,6.55
2023-05-09T15:24:04.922Z,6.07
2023-05-09T15:26:32.040Z,6.97
2023-05-09T15:28:58.774Z,6.05
2023-05-09T15:31:25.963Z,6.80
2023-05-09T15:33:52.915Z,6.65
2023-05-09T15:36:19.606Z,6.82
2023-05-09T15:38:49.377Z,5.90
2023-05-09T15:41:17.248Z,6.00
2023-05-09T15:43:44.020Z,6.22
2023-05-09T15:46:11.143Z,6.95
2023-05-09T15:48:37.764Z,6.28
2023-05-09T15:51:04.776Z,6.55
2023-05-09T15:53:31.647Z,7.00
2023-05-09T15:55:58.300Z,6.85
2023-05-09T15:58:25.169Z,6.68
2023-05-09T16:00:51.956Z,7.18
2023-05-09T16:03:19.411Z,6.43
2023-05-09T16:05:46.320Z,6.53
2023-05-09T16:08:13.129Z,6.80
2023-05-09T16:10:40.788Z,7.10
2023-05-09T16:13:07.800Z,7.28
2023-05-09T16:15:35.149Z,7.95
2023-05-09T16:18:01.820Z,7.40
2023-05-09T16:20:28.515Z,8.30
2023-05-09T16:22:55.183Z,8.15
2023-05-09T16:25:21.974Z,9.57
2023-05-09T16:27:48.612Z,8.73
2023-05-09T16:30:16.137Z,8.20
2023-05-09T16:32:43.349Z,7.85
2023-05-09T16:35:10.292Z,8.50
2023-05-09T16:37:37.485Z,8.65
2023-05-09T16:40:04.841Z,9.07
2023-05-09T16:42:31.682Z,8.43
2023-05-09T16:44:58.337Z,8.02
2023-05-09T16:47:25.061Z,8.88
2023-05-09T16:49:51.993Z,11.00
2023-05-09T16:52:19.217Z,10.93
2023-05-09T16:54:46.151Z,11.35
2023-05-09T16:57:13.287Z,11.85
2023-05-09T16:59:40.296Z,10.90
2023-05-09T17:02:07.182Z,12.52
2023-05-09T17:04:36.757Z,12.40
2023-05-09T17:07:04.264Z,12.35
2023-05-09T17:09:30.856Z,11.13
2023-05-09T17:11:57.546Z,11.68
2023-05-09T17:14:24.572Z,13.38
2023-05-09T17:16:51.702Z,12.13
2023-05-09T17:19:20.527Z,13.48
2023-05-09T17:21:47.328Z,12.98
2023-05-09T17:24:13.981Z,13.70
2023-05-09T17:26:40.719Z,13.27
2023-05-09T17:29:07.406Z,12.18
2023-05-09T17:31:34.178Z,12.00
2023-05-09T17:34:01.419Z,12.88
2023-05-09T17:36:28.169Z,13.60
2023-05-09T17:38:54.751Z,12.70
2023-05-09T17:41:21.982Z,12.55
2023-05-09T17:43:48.700Z,12.30
2023-05-09T17:46:15.525Z,11.00
2023-05-09T17:48:42.537Z,12.38
2023-05-09T17:51:09.195Z,12.45
2023-05-09T17:53:35.830Z,12.98
2023-05-09T17:56:02.962Z,11.65
2023-05-09T17:58:30.070Z,13.07
2023-05-09T18:00:58.618Z,11.27
2023-05-09T18:03:32.367Z,11.65
2023-05-09T18:06:00.345Z,12.10
2023-05-09T18:08:27.534Z,12.90
2023-05-09T18:10:57.214Z,12.18
2023-05-09T18:13:24.292Z,12.07
2023-05-09T18:15:51.379Z,12.98
2023-05-09T18:18:18.234Z,13.18
2023-05-09T18:20:47.102Z,11.70
2023-05-09T18:23:14.965Z,13.57
2023-05-09T18:25:42.019Z,13.90
2023-05-09T18:28:08.959Z,13.77
2023-05-09T18:30:36.226Z,13.23
2023-05-09T18:33:03.188Z,13.73
2023-05-09T18:35:30.216Z,13.60
2023-05-09T18:37:57.073Z,15.20
2023-05-09T18:40:23.889Z,12.32
2023-05-09T18:42:50.435Z,13.23
2023-05-09T18:45:17.094Z,14.07
2023-05-09T18:47:43.699Z,13.73
2023-05-09T18:50:11.113Z,13.50
2023-05-09T18:52:37.689Z,14.13
2023-05-09T18:55:05.869Z,15.25
2023-05-09T18:57:33.854Z,13.15
2023-05-09T19:00:00.700Z,13.73
2023-05-09T19:02:27.575Z,11.82
2023-05-09T19:04:54.353Z,12.18
2023-05-09T19:07:21.051Z,12.77
2023-05-09T19:09:47.754Z,12.98
2023-05-09T19:12:16.324Z,12.57
2023-05-09T19:14:43.335Z,13.57
2023-05-09T19:17:10.839Z,12.18
2023-05-09T19:19:37.658Z,14.93
2023-05-09T19:22:04.863Z,13.70
2023-05-09T19:24:32.969Z,11.27
2023-05-09T19:26:59.612Z,12.52
2023-05-09T19:29:26.355Z,12.77
2023-05-09T19:31:53.049Z,13.43
2023-05-09T19:34:19.807Z,13.93
2023-05-09T19:36:46.449Z,13.13
2023-05-09T19:39:13.185Z,12.70
2023-05-09T19:41:40.644Z,11.40
2023-05-09T19:44:07.398Z,14.07
2023-05-09T19:46:35.259Z,13.15
2023-05-09T19:49:02.101Z,14.70
2023-05-09T19:51:29.648Z,13.10
2023-05-09T19:53:56.474Z,12.45
2023-05-09T19:56:23.181Z,13.23
2023-05-09T19:58:50.376Z,13.38
2023-05-09T20:01:19.059Z,14.43
2023-05-09T20:03:47.001Z,14.75
2023-05-09T20:06:13.815Z,13.18
2023-05-09T20:08:40.754Z,14.68
2023-05-09T20:11:07.849Z,14.85
2023-05-09T20:13:34.745Z,13.98
2023-05-09T20:16:03.241Z,14.52
2023-05-09T20:18:33.217Z,14.50
2023-05-09T20:21:03.875Z,13.43
2023-05-09T20:23:31.131Z,13.35
2023-05-09T20:25:57.918Z,14.35
2023-05-09T20:28:24.703Z,13.43
2023-05-09T20:30:51.398Z,13.15
2023-05-09T20:33:19.066Z,11.75
2023-05-09T20:35:45.828Z,13.35
2023-05-09T20:38:12.642Z,12.55
2023-05-09T20:40:40.361Z,13.18
2023-05-09T20:43:07.137Z,13.60
2023-05-09T20:45:33.971Z,13.32
2023-05-09T20:48:01.738Z,13.10
2023-05-09T20:50:28.748Z,13.43
2023-05-09T20:52:55.629Z,12.75
2023-05-09T20:55:22.450Z,10.95
2023-05-09T20:57:49.178Z,12.93
2023-05-09T21:00:16.550Z,11.77
2023-05-09T21:02:43.473Z,12.63
2023-05-09T21:05:10.400Z,12.77
2023-05-09T21:07:37.092Z,12.52
2023-05-09T21:10:04.029Z,13.15
2023-05-09T21:12:34.004Z,13.38
2023-05-09T21:15:03.115Z,13.00
2023-05-09T21:17:29.726Z,12.95
2023-05-09T21:19:56.622Z,13.80
2023-05-09T21:22:23.812Z,13.27
2023-05-09T21:24:51.006Z,13.60
2023-05-09T21:27:17.779Z,15.05
2023-05-09T21:29:44.589Z,14.07
2023-05-09T21:32:11.198Z,13.43
2023-05-09T21:34:37.903Z,13.25
2023-05-09T21:37:04.485Z,14.05
2023-05-09T21:39:32.536Z,13.55
2023-05-09T21:42:00.113Z,12.27
2023-05-09T21:44:26.797Z,12.75
2023-05-09T21:46:53.487Z,13.25
2023-05-09T21:49:21.652Z,12.98
2023-05-09T21:51:48.330Z,12.73
2023-05-09T21:54:15.256Z,12.77
2023-05-09T21:56:42.677Z,13.60
2023-05-09T21:59:09.438Z,11.95
2023-05-09T22:01:36.865Z,10.77
2023-05-09T22:04:03.822Z,9.27
2023-05-09T22:06:31.305Z,9.52
2023-05-09T22:08:58.021Z,10.13
2023-05-09T22:11:24.887Z,8.15
2023-05-09T22:13:52.033Z,8.50
2023-05-09T22:16:18.702Z,6.80
2023-05-09T22:18:45.413Z,6.28
2023-05-09T22:21:12.676Z,5.93
2023-05-09T22:23:39.445Z,5.25
2023-05-09T22:26:06.486Z,5.45
2023-05-09T22:28:33.157Z,5.18
2023-05-09T22:30:59.758Z,4.90
2023-05-09T22:33:26.414Z,4.35
2023-05-09T22:35:53.036Z,5.10
2023-05-09T22:38:19.688Z,4.82
2023-05-09T22:40:46.351Z,4.72
2023-05-09T22:43:13.051Z,5.03
2023-05-09T22:45:39.700Z,4.28
2023-05-09T22:48:06.694Z,4.78
2023-05-09T22:50:33.366Z,4.47
2023-05-09T22:53:00.344Z,5.18
2023-05-09T22:55:27.259Z,4.47
2023-05-09T22:57:53.982Z,3.78
2023-05-09T23:00:20.686Z,3.67
2023-05-09T23:02:47.671Z,3.55
2023-05-09T23:05:14.322Z,3.17
2023-05-09T23:07:41.034Z,2.90
2023-05-09T23:10:08.077Z,3.15
2023-05-09T23:12:34.792Z,2.60
2023-05-09T23:15:01.469Z,2.67
2023-05-09T23:17:28.184Z,2.85
2023-05-09T23:19:54.782Z,2.40
2023-05-09T23:22:21.637Z,1.92
2023-05-09T23:24:48.448Z,2.15
2023-05-09T23:27:15.197Z,2.63
2023-05-09T23:29:41.833Z,3.00
2023-05-09T23:32:08.577Z,2.42
2023-05-09T23:34:36.684Z,2.70
2023-05-09T23:37:04.224Z,2.88
2023-05-09T23:39:31.527Z,2.17
2023-05-09T23:41:58.289Z,1.80
2023-05-09T23:44:25.597Z,1.67
2023-05-09T23:46:52.415Z,1.98
2023-05-09T23:49:19.134Z,2.33
2023-05-09T23:51:45.777Z,1.60
2023-05-09T23:54:12.476Z,1.77
2023-05-09T23:56:39.148Z,1.70
2023-05-09T23:59:05.785Z,1.77
